createdAt,value
2019-04-07T00:01:56.413Z,99186.97
2019-04-07T00:04:25.477Z,99186.11
2019-04-07T00:06:54.443Z,99187.89
2019-04-07T00:09:23.250Z,99186.24
2019-04-07T00:11:51.946Z,99185.73
2019-04-07T00:14:20.769Z,99189.73
2019-04-07T00:16:49.544Z,99194.86
2019-04-07T00:19:18.254Z,99194.72
2019-04-07T00:21:56.700Z,99197.84
2019-04-07T00:24:27.266Z,99192.25
2019-04-07T00:26:59.110Z,99189.54
2019-04-07T00:29:33.508Z,99192.78
2019-04-07T00:32:11.357Z,99191.37
2019-04-07T00:34:45.154Z,99200.30
2019-04-07T00:37:16.200Z,99192.22
2019-04-07T00:39:54.117Z,99202.39
2019-04-07T00:42:24.723Z,99211.57
2019-04-07T00:45:00.856Z,99208.78
2019-04-07T00:47:35.100Z,99207.77
2019-04-07T00:50:07.892Z,99205.98
2019-04-07T01:48:10.621Z,99206.69
2019-04-07T01:50:55.821Z,99208.66
2019-04-07T01:53:25.905Z,99206.19
2019-04-07T01:55:56.445Z,99209.48
2019-04-07T01:58:32.845Z,99210.42
2019-04-07T02:01:12.153Z,99204.49
2019-04-07T02:03:51.246Z,99202.02
2019-04-07T02:06:31.115Z,99206.33
2019-04-07T02:09:01.809Z,99206.58
2019-04-07T02:11:47.923Z,99210.09
2019-04-07T02:14:17.993Z,99210.88
2019-04-07T02:16:48.108Z,99210.60
2019-04-07T02:19:27.010Z,99210.74
2019-04-07T02:21:57.054Z,99207.22
2019-04-07T02:24:28.337Z,99204.24
2019-04-07T02:27:10.742Z,99211.02
2019-04-07T02:29:40.854Z,99218.56
2019-04-07T02:32:10.910Z,99215.30
2019-04-07T02:34:57.483Z,99217.70
2019-04-07T02:37:31.232Z,99216.81
2019-04-07T02:40:07.643Z,99213.33
2019-04-07T02:42:38.349Z,99211.06
2019-04-07T02:45:10.968Z,99219.79
2019-04-07T02:47:57.760Z,99216.37
2019-04-07T02:50:27.909Z,99215.77
2019-04-07T02:52:58.037Z,99220.36
2019-04-07T02:55:28.564Z,99212.88
2019-04-07T02:58:04.669Z,99214.22
2019-04-07T03:00:37.937Z,99220.14
2019-04-07T03:03:18.810Z,99222.77
2019-04-07T03:05:49.632Z,99223.44
2019-04-07T03:08:23.628Z,99226.83
2019-04-07T03:11:02.078Z,99225.97
2019-04-07T03:13:49.046Z,99235.88
2019-04-07T03:16:24.983Z,99236.97
2019-04-07T03:18:58.010Z,99229.40
2019-04-07T03:21:33.671Z,99231.99
2019-04-07T03:24:09.918Z,99235.15
2019-04-07T03:26:48.518Z,99239.55
2019-04-07T03:29:27.398Z,99236.53
2019-04-07T03:32:06.213Z,99236.42
2019-04-07T03:34:38.019Z,99234.38
2019-04-07T03:37:34.335Z,99231.52
2019-04-07T03:39:54.747Z,99229.63
2019-04-07T03:42:27.545Z,99228.93
2019-04-07T03:45:06.356Z,99230.72
2019-04-07T03:47:37.529Z,99229.72
2019-04-07T03:50:20.638Z,99225.54
2019-04-07T03:52:51.077Z,99224.80
2019-04-07T03:55:33.062Z,99226.72
2019-04-07T03:58:12.409Z,99224.83
2019-04-07T04:01:03.625Z,99225.14
2019-04-07T04:03:34.332Z,99222.25
2019-04-07T04:06:04.738Z,99221.81
2019-04-07T04:08:38.316Z,99228.27
2019-04-07T04:11:11.646Z,99226.52
2019-04-07T04:13:42.298Z,99231.25
2019-04-07T04:16:11.207Z,99236.58
2019-04-07T04:18:40.555Z,99234.35
2019-04-07T04:21:09.170Z,99242.03
2019-04-07T04:23:41.319Z,99241.45
2019-04-07T04:26:08.311Z,99241.55
2019-04-07T04:28:36.887Z,99247.42
2019-04-07T04:31:05.257Z,99255.27
2019-04-07T04:33:33.707Z,99258.91
2019-04-07T04:36:02.761Z,99259.84
2019-04-07T04:38:31.822Z,99262.90
2019-04-07T04:41:01.337Z,99264.72
2019-04-07T04:43:29.904Z,99268.64
2019-04-07T04:45:58.329Z,99266.20
2019-04-07T04:48:27.663Z,99267.97
2019-04-07T04:50:56.380Z,99276.77
2019-04-07T04:53:25.614Z,99275.33
2019-04-07T04:55:54.475Z,99277.44
2019-04-07T04:58:28.833Z,99283.06
2019-04-07T05:00:57.861Z,99283.41
2019-04-07T05:03:27.199Z,99287.45
2019-04-07T05:05:56.291Z,99296.48
2019-04-07T05:08:24.869Z,99293.17
2019-04-07T05:10:54.870Z,99301.52
2019-04-07T05:13:23.262Z,99303.36
2019-04-07T05:15:51.789Z,99305.08
2019-04-07T05:18:20.197Z,99309.34
2019-04-07T05:20:48.758Z,99313.58
2019-04-07T05:23:18.008Z,99311.25
2019-04-07T05:25:46.541Z,99309.75
2019-04-07T05:28:15.412Z,99313.02
2019-04-07T05:30:44.123Z,99308.15
2019-04-07T05:33:13.433Z,99315.39
2019-04-07T05:35:42.810Z,99311.23
2019-04-07T05:38:11.384Z,99311.41
2019-04-07T05:40:40.024Z,99322.20
2019-04-07T05:43:08.561Z,99328.61
2019-04-07T05:45:37.705Z,99324.27
2019-04-07T05:48:06.458Z,99328.23
2019-04-07T05:50:35.036Z,99335.87
2019-04-07T05:53:04.167Z,99336.31
2019-04-07T05:55:32.649Z,99341.60
2019-04-07T05:58:03.434Z,99347.33
2019-04-07T06:00:31.293Z,99349.11
2019-04-07T06:03:04.546Z,99350.97
2019-04-07T06:05:30.247Z,99358.75
2019-04-07T06:08:00.866Z,99355.83
2019-04-07T06:10:29.814Z,99362.84
2019-04-07T06:12:59.565Z,99362.67
2019-04-07T06:15:28.097Z,99367.67
2019-04-07T06:18:00.603Z,99365.25
2019-04-07T06:20:26.671Z,99365.43
2019-04-07T06:22:55.115Z,99362.29
2019-04-07T06:25:23.526Z,99365.64
2019-04-07T06:27:51.952Z,99370.38
2019-04-07T06:30:20.995Z,99365.52
2019-04-07T06:32:49.419Z,99368.92
2019-04-07T06:35:18.273Z,99369.16
2019-04-07T06:37:47.590Z,99372.50
2019-04-07T06:40:20.467Z,99374.13
2019-04-07T06:42:46.365Z,99370.08
2019-04-07T06:45:20.598Z,99375.03
2019-04-07T06:47:48.679Z,99375.13
2019-04-07T06:50:44.853Z,99376.70
2019-04-07T06:53:18.671Z,99382.56
2019-04-07T06:56:02.121Z,99389.05
2019-04-07T06:58:43.833Z,99386.73
2019-04-07T07:01:25.737Z,99389.07
2019-04-07T07:04:13.163Z,99388.95
2019-04-07T07:06:46.069Z,99385.08
2019-04-07T07:09:30.868Z,99389.80
2019-04-07T07:12:06.565Z,99385.00
2019-04-07T07:14:49.558Z,99390.54
2019-04-07T07:17:22.529Z,99394.96
2019-04-07T07:20:07.950Z,99388.30
2019-04-07T07:22:46.700Z,99396.34
2019-04-07T07:25:14.694Z,99396.72
2019-04-07T07:27:43.173Z,99389.97
2019-04-07T07:30:12.180Z,99389.52
2019-04-07T07:32:40.977Z,99390.38
2019-04-07T07:35:12.592Z,99390.03
2019-04-07T07:37:40.118Z,99389.14
2019-04-07T07:40:10.022Z,99387.21
2019-04-07T07:42:38.470Z,99392.63
2019-04-07T07:45:11.815Z,99388.11
2019-04-07T07:47:39.169Z,99390.27
2019-04-07T07:50:08.827Z,99389.94
2019-04-07T07:52:37.676Z,99389.02
2019-04-07T07:55:07.783Z,99395.48
2019-04-07T07:57:37.032Z,99399.56
2019-04-07T08:00:07.538Z,99397.91
2019-04-07T08:02:36.817Z,99397.85
2019-04-07T08:05:07.136Z,99401.92
2019-04-07T08:07:35.912Z,99400.75
2019-04-07T08:10:07.381Z,99405.21
2019-04-07T08:12:35.955Z,99401.00
2019-04-07T08:15:06.987Z,99399.52
2019-04-07T08:17:35.714Z,99410.84
2019-04-07T08:20:06.651Z,99401.16
2019-04-07T08:22:40.737Z,99402.30
2019-04-07T08:25:06.601Z,99402.65
2019-04-07T08:27:35.487Z,99404.52
2019-04-07T08:30:10.067Z,99402.20
2019-04-07T08:32:36.845Z,99403.19
2019-04-07T08:35:07.966Z,99404.40
2019-04-07T08:37:36.565Z,99413.25
2019-04-07T08:40:07.671Z,99407.22
2019-04-07T08:42:36.953Z,99410.77
2019-04-07T08:45:08.152Z,99403.51
2019-04-07T08:47:36.638Z,99408.42
2019-04-07T08:50:08.445Z,99407.47
2019-04-07T08:52:40.755Z,99403.01
2019-04-07T08:55:08.280Z,99396.52
2019-04-07T08:57:37.420Z,99393.98
2019-04-07T09:00:15.065Z,99387.50
2019-04-07T09:02:40.548Z,99387.98
2019-04-07T09:05:12.946Z,99395.13
2019-04-07T09:07:42.258Z,99391.95
2019-04-07T09:10:17.041Z,99390.40
2019-04-07T09:12:44.015Z,99384.45
2019-04-07T09:15:14.282Z,99377.69
2019-04-07T09:17:46.645Z,99371.30
2019-04-07T09:20:16.176Z,99360.41
2019-04-07T09:22:54.971Z,99361.22
2019-04-07T09:25:27.339Z,99357.34
2019-04-07T09:28:03.585Z,99354.03
2019-04-07T09:30:36.816Z,99356.14
2019-04-07T09:33:16.004Z,99357.50
2019-04-07T09:35:59.393Z,99363.16
2019-04-07T09:38:29.534Z,99360.84
2019-04-07T09:41:16.687Z,99357.61
2019-04-07T09:43:47.262Z,99348.06
2019-04-07T09:46:26.454Z,99359.61
2019-04-07T09:49:02.266Z,99363.66
2019-04-07T09:51:49.413Z,99366.02
2019-04-07T09:54:23.379Z,99367.73
2019-04-07T09:57:04.490Z,99366.91
2019-04-07T09:59:37.571Z,99373.19
2019-04-07T10:02:17.080Z,99364.34
2019-04-07T10:05:03.856Z,99372.74
2019-04-07T10:07:43.781Z,99374.20
2019-04-07T10:10:14.928Z,99354.66
2019-04-07T10:13:03.363Z,99354.94
2019-04-07T10:15:39.638Z,99351.49
2019-04-07T10:18:25.942Z,99356.61
2019-04-07T10:21:05.332Z,99362.42
2019-04-07T10:23:50.884Z,99365.67
2019-04-07T10:26:24.393Z,99365.02
2019-04-07T10:28:55.197Z,99364.24
2019-04-07T10:31:25.378Z,99363.02
2019-04-07T10:33:56.195Z,99367.87
2019-04-07T10:36:27.050Z,99368.03
2019-04-07T10:39:15.324Z,99363.85
2019-04-07T10:41:55.310Z,99372.56
2019-04-07T10:44:43.635Z,99376.22
2019-04-07T10:47:23.503Z,99383.27
2019-04-07T10:50:02.414Z,99375.17
2019-04-07T10:52:28.309Z,99387.42
2019-04-07T10:55:14.199Z,99390.27
2019-04-07T10:57:59.829Z,99387.02
2019-04-07T11:00:50.655Z,99382.13
2019-04-07T11:03:36.262Z,99389.72
2019-04-07T11:06:24.659Z,99383.95
2019-04-07T11:08:55.455Z,99381.79
2019-04-07T11:11:42.143Z,99386.08
2019-04-07T11:14:12.259Z,99382.70
2019-04-07T11:16:48.558Z,99383.40
2019-04-07T11:19:21.681Z,99377.13
2019-04-07T11:21:51.780Z,99386.02
2019-04-07T11:24:22.127Z,99370.09
2019-04-07T11:26:52.715Z,99368.16
2019-04-07T11:29:39.660Z,99371.77
2019-04-07T11:32:28.136Z,99354.16
2019-04-07T11:35:04.980Z,99372.47
2019-04-07T11:37:50.261Z,99365.97
2019-04-07T11:40:21.030Z,99364.38
2019-04-07T11:42:51.242Z,99378.00
2019-04-07T11:45:53.297Z,99388.56
2019-04-07T11:48:17.593Z,99391.67
2019-04-07T11:50:50.753Z,99389.25
2019-04-07T11:53:24.155Z,99391.97
2019-04-07T11:56:03.403Z,99393.05
2019-04-07T11:58:48.733Z,99390.20
2019-04-07T12:01:21.580Z,99389.33
2019-04-07T12:04:08.720Z,99383.31
2019-04-07T12:06:48.162Z,99392.67
2019-04-07T12:09:17.551Z,99386.47
2019-04-07T12:12:04.796Z,99391.11
2019-04-07T12:14:53.148Z,99391.20
2019-04-07T12:17:25.607Z,99388.83
2019-04-07T12:19:59.158Z,99387.66
2019-04-07T12:22:31.715Z,99389.98
2019-04-07T12:25:17.919Z,99395.09
2019-04-07T12:28:04.332Z,99400.59
2019-04-07T12:30:37.980Z,99398.36
2019-04-07T12:33:09.028Z,99393.83
2019-04-07T12:35:39.903Z,99389.69
2019-04-07T12:38:22.929Z,99385.72
2019-04-07T12:40:59.502Z,99389.03
2019-04-07T12:43:31.091Z,99394.41
2019-04-07T12:46:01.354Z,99390.58
2019-04-07T12:48:38.061Z,99394.88
2019-04-07T12:51:08.462Z,99385.92
2019-04-07T12:53:41.187Z,99387.59
2019-04-07T12:56:33.329Z,99387.11
2019-04-07T12:59:07.979Z,99388.81
2019-04-07T13:01:38.253Z,99374.42
2019-04-07T13:04:23.385Z,99377.33
2019-04-07T13:07:02.422Z,99373.19
2019-04-07T13:09:38.456Z,99364.27
2019-04-07T13:12:25.842Z,99369.72
2019-04-07T13:14:59.036Z,99369.77
2019-04-07T13:17:38.254Z,99366.44
2019-04-07T13:20:22.316Z,99368.10
2019-04-07T13:22:53.121Z,99365.91
2019-04-07T13:25:24.263Z,99368.89
2019-04-07T13:28:08.134Z,99361.56
2019-04-07T13:30:39.115Z,99369.65
2019-04-07T13:33:21.691Z,99371.23
2019-04-07T13:36:05.022Z,99361.78
2019-04-07T13:38:35.256Z,99362.31
2019-04-07T13:41:23.722Z,99360.67
2019-04-07T13:44:07.123Z,99364.50
2019-04-07T13:46:44.373Z,99368.23
2019-04-07T13:49:32.060Z,99361.41
2019-04-07T13:52:20.342Z,99362.10
2019-04-07T13:54:49.412Z,99366.11
2019-04-07T13:57:34.952Z,99365.52
2019-04-07T14:00:21.710Z,99371.36
2019-04-07T14:02:51.946Z,99369.91
2019-04-07T14:05:28.103Z,99373.53
2019-04-07T14:07:58.915Z,99369.31
2019-04-07T14:10:45.031Z,99366.41
2019-04-07T14:13:21.049Z,99374.98
2019-04-07T14:15:54.018Z,99373.72
2019-04-07T14:18:36.715Z,99375.22
2019-04-07T14:21:23.583Z,99373.81
2019-04-07T14:23:57.229Z,99374.77
2019-04-07T14:26:31.231Z,99368.61
2019-04-07T14:29:16.961Z,99367.62
2019-04-07T14:31:53.409Z,99374.83
2019-04-07T14:34:35.211Z,99379.68
2019-04-07T14:37:20.629Z,99382.38
2019-04-07T14:40:01.060Z,99377.09
2019-04-07T14:42:34.140Z,99377.80
2019-04-07T14:45:07.776Z,99379.14
2019-04-07T14:47:38.205Z,99375.41
2019-04-07T14:50:14.587Z,99379.62
2019-04-07T14:52:53.704Z,99378.73
2019-04-07T14:55:31.565Z,99380.55
2019-04-07T14:58:19.003Z,99385.34
2019-04-07T15:00:52.330Z,99382.50
2019-04-07T15:03:21.425Z,99383.92
2019-04-07T15:05:56.506Z,99382.72
2019-04-07T15:08:30.381Z,99387.98
2019-04-07T15:11:02.680Z,99386.19
2019-04-07T15:13:32.106Z,99383.02
2019-04-07T15:16:00.618Z,99387.83
2019-04-07T15:18:29.800Z,99387.80
2019-04-07T15:20:58.257Z,99389.73
2019-04-07T15:23:29.455Z,99382.53
2019-04-07T15:25:56.885Z,99387.71
2019-04-07T15:28:25.290Z,99385.31
2019-04-07T15:30:53.761Z,99389.64
2019-04-07T15:33:22.401Z,99386.96
2019-04-07T15:35:50.858Z,99387.75
2019-04-07T15:38:22.989Z,99391.48
2019-04-07T15:40:49.529Z,99391.56
2019-04-07T15:43:17.956Z,99389.47
2019-04-07T15:45:46.941Z,99388.35
2019-04-07T15:48:15.424Z,99389.92
2019-04-07T15:50:43.852Z,99397.45
2019-04-07T15:53:14.981Z,99389.50
2019-04-07T15:55:49.889Z,99391.89
2019-04-07T15:58:13.468Z,99397.55
2019-04-07T16:00:42.043Z,99393.38
2019-04-07T16:03:12.705Z,99398.00
2019-04-07T16:05:43.812Z,99400.69
2019-04-07T16:08:11.665Z,99397.70
2019-04-07T16:10:41.412Z,99401.61
2019-04-07T16:13:10.839Z,99395.94
2019-04-07T16:15:42.584Z,99400.70
2019-04-07T16:18:10.512Z,99412.80
2019-04-07T16:20:40.376Z,99416.52
2019-04-07T16:23:10.204Z,99401.09
2019-04-07T16:25:40.457Z,99406.68
2019-04-07T16:28:13.124Z,99406.91
2019-04-07T16:30:39.495Z,99412.07
2019-04-07T16:33:08.794Z,99407.00
2019-04-07T16:35:37.296Z,99410.00
2019-04-07T16:38:05.815Z,99407.02
2019-04-07T16:40:35.013Z,99414.11
2019-04-07T16:43:12.451Z,99407.09
2019-04-07T16:45:33.922Z,99417.06
2019-04-07T16:48:04.742Z,99415.45
2019-04-07T16:50:32.678Z,99420.74
2019-04-07T16:53:03.584Z,99420.53
2019-04-07T16:55:34.905Z,99416.55
2019-04-07T16:58:03.543Z,99421.34
2019-04-07T17:00:32.403Z,99421.33
2019-04-07T17:03:01.298Z,99419.91
2019-04-07T17:05:30.227Z,99424.23
2019-04-07T17:07:59.468Z,99425.14
2019-04-07T17:10:32.320Z,99429.69
2019-04-07T17:13:00.407Z,99430.72
2019-04-07T17:15:28.488Z,99434.66
2019-04-07T17:17:57.030Z,99434.88
2019-04-07T17:20:27.189Z,99435.92
2019-04-07T17:22:56.785Z,99439.95
2019-04-07T17:25:25.584Z,99441.52
2019-04-07T17:27:54.060Z,99444.14
2019-04-07T17:30:25.333Z,99438.99
2019-04-07T17:32:53.343Z,99444.44
2019-04-07T17:35:21.817Z,99442.50
2019-04-07T17:37:50.926Z,99448.60
2019-04-07T17:40:21.511Z,99448.00
2019-04-07T17:42:52.776Z,99449.80
2019-04-07T17:45:38.109Z,99455.09
2019-04-07T17:48:24.536Z,99452.62
2019-04-07T17:51:08.411Z,99454.42
2019-04-07T17:53:41.386Z,99460.22
2019-04-07T17:56:16.595Z,99457.97
2019-04-07T17:58:45.681Z,99463.03
2019-04-07T18:01:25.067Z,99471.02
2019-04-07T18:04:15.490Z,99468.65
2019-04-07T18:06:49.510Z,99465.79
2019-04-07T18:09:28.459Z,99474.27
2019-04-07T18:12:13.923Z,99476.89
2019-04-07T18:15:00.684Z,99480.67
2019-04-07T18:17:48.562Z,99483.72
2019-04-07T18:20:36.333Z,99489.60
2019-04-07T18:23:09.917Z,99488.75
2019-04-07T18:25:46.439Z,99493.14
2019-04-07T18:28:26.177Z,99489.86
2019-04-07T18:31:13.279Z,99501.77
2019-04-07T18:34:01.411Z,99506.13
2019-04-07T18:36:42.518Z,99501.61
2019-04-07T18:39:15.933Z,99506.03
2019-04-07T18:42:04.100Z,99506.35
2019-04-07T18:44:48.740Z,99517.16
2019-04-07T18:47:27.542Z,99521.50
2019-04-07T18:50:04.065Z,99523.56
2019-04-07T18:52:53.334Z,99527.37
2019-04-07T18:55:27.324Z,99527.45
2019-04-07T18:58:15.360Z,99538.77
2019-04-07T19:00:45.739Z,99544.45
2019-04-07T19:03:35.072Z,99544.95
2019-04-07T19:06:14.821Z,99557.80
2019-04-07T19:08:54.371Z,99558.53
2019-04-07T19:11:26.144Z,99557.50
2019-04-07T19:14:30.626Z,99560.02
2019-04-07T19:16:47.065Z,99560.85
2019-04-07T19:19:36.832Z,99559.00
2019-04-07T19:22:19.687Z,99564.04
2019-04-07T19:25:11.194Z,99553.03
2019-04-07T19:28:03.469Z,99563.87
2019-04-07T19:30:53.391Z,99561.16
2019-04-07T19:33:59.832Z,99563.92
2019-04-07T19:36:35.849Z,99581.29
2019-04-07T19:39:12.586Z,99580.66
2019-04-07T19:42:06.915Z,99586.22
2019-04-07T19:44:53.615Z,99580.80
2019-04-07T19:47:37.171Z,99582.62
2019-04-07T19:50:27.020Z,99584.09
2019-04-07T19:53:00.980Z,99586.77
2019-04-07T19:55:46.501Z,99585.75
2019-04-07T19:58:26.391Z,99583.27
2019-04-07T20:01:01.657Z,99592.36
2019-04-07T20:03:47.979Z,99590.33
2019-04-07T20:06:34.166Z,99583.31
2019-04-07T20:09:07.688Z,99586.06
2019-04-07T20:11:37.522Z,99587.20
2019-04-07T20:14:23.841Z,99587.64
2019-04-07T20:16:53.934Z,99591.72
2019-04-07T20:19:27.881Z,99591.70
2019-04-07T20:21:58.184Z,99587.63
2019-04-07T20:24:36.730Z,99597.03
2019-04-07T20:27:06.633Z,99590.55
2019-04-07T20:29:42.372Z,99594.44
2019-04-07T20:32:25.291Z,99595.63
2019-04-07T20:35:01.231Z,99599.25
2019-04-07T20:37:32.283Z,99598.71
2019-04-07T20:40:05.366Z,99605.66
2019-04-07T20:42:39.772Z,99598.45
2019-04-07T20:45:21.555Z,99595.95
2019-04-07T20:47:52.215Z,99596.59
2019-04-07T20:50:31.319Z,99591.53
2019-04-07T20:53:22.862Z,99596.77
2019-04-07T20:56:00.796Z,99591.41
2019-04-07T20:58:55.508Z,99593.95
2019-04-07T21:01:28.683Z,99592.97
2019-04-07T21:04:06.385Z,99594.30
2019-04-07T21:06:45.575Z,99596.75
2019-04-07T21:09:31.613Z,99596.87
2019-04-07T21:12:03.038Z,99599.95
2019-04-07T21:14:45.376Z,99601.89
2019-04-07T21:17:32.566Z,99595.80
2019-04-07T21:20:10.918Z,99597.61
2019-04-07T21:22:56.089Z,99599.54
2019-04-07T21:25:35.275Z,99601.42
2019-04-07T21:28:11.091Z,99602.25
2019-04-07T21:30:42.976Z,99600.41
2019-04-07T21:33:32.432Z,99605.09
2019-04-07T21:36:10.314Z,99608.47
2019-04-07T21:38:41.161Z,99608.11
2019-04-07T21:41:21.031Z,99617.12
2019-04-07T21:44:03.405Z,99631.06
2019-04-07T21:46:42.951Z,99636.55
2019-04-07T21:49:13.856Z,99636.14
2019-04-07T21:51:48.221Z,99640.90
2019-04-07T21:54:18.367Z,99637.13
2019-04-07T21:56:48.419Z,99642.34
2019-04-07T21:59:19.965Z,99650.58
2019-04-07T22:01:55.953Z,99650.45
2019-04-07T22:04:44.477Z,99651.52
2019-04-07T22:07:32.868Z,99654.45
2019-04-07T22:10:01.442Z,99656.30
2019-04-07T22:12:30.705Z,99662.82
2019-04-07T22:15:00.270Z,99664.58
2019-04-07T22:17:32.735Z,99664.22
2019-04-07T22:19:59.032Z,99662.36
2019-04-07T22:22:27.720Z,99667.30
2019-04-07T22:24:56.733Z,99674.50
2019-04-07T22:27:27.312Z,99678.62
2019-04-07T22:29:55.436Z,99673.73
2019-04-07T22:32:24.373Z,99677.62
2019-04-07T22:34:52.970Z,99680.75
2019-04-07T22:37:22.474Z,99675.66
2019-04-07T22:39:52.680Z,99676.67
2019-04-07T22:42:22.390Z,99670.77
2019-04-07T22:44:53.677Z,99667.97
2019-04-07T22:47:22.405Z,99669.52
2019-04-07T22:49:51.325Z,99667.83
2019-04-07T22:52:20.547Z,99667.39
2019-04-07T22:54:49.840Z,99663.13
2019-04-07T22:57:18.354Z,99663.05
2019-04-07T22:59:47.180Z,99667.06
2019-04-07T23:02:15.968Z,99667.52
2019-04-07T23:04:44.794Z,99665.99
2019-04-07T23:07:13.800Z,99667.08
2019-04-07T23:09:42.179Z,99673.86
2019-04-07T23:12:10.682Z,99675.44
2019-04-07T23:14:40.040Z,99677.48
2019-04-07T23:17:08.733Z,99673.80
2019-04-07T23:19:37.867Z,99677.35
2019-04-07T23:22:06.540Z,99680.08
2019-04-07T23:24:35.051Z,99678.06
2019-04-07T23:27:04.128Z,99682.56
2019-04-07T23:29:32.721Z,99685.73
2019-04-07T23:32:01.851Z,99700.83
2019-04-07T23:34:31.101Z,99692.69
2019-04-07T23:36:59.777Z,99704.75
2019-04-07T23:39:29.188Z,99697.46
2019-04-07T23:41:58.600Z,99693.09
2019-04-07T23:44:27.710Z,99696.39
2019-04-07T23:46:57.107Z,99700.92
2019-04-07T23:49:26.149Z,99701.00
2019-04-07T23:51:55.240Z,99706.66
2019-04-07T23:54:24.807Z,99712.84
2019-04-07T23:56:54.135Z,99707.45
2019-04-07T23:59:22.884Z,99702.91
